Time;durP1;ratioP1;P1;durP2;ratioP2;P2;SDS_P1;SDS_P2;PMS_P1;PMS_P2;Temp;Humidity;BMP_temperature;BMP_pressure;BME280_temperature;BME280_humidity;BME280_pressure;Samples;Min_cycle;Max_cycle;Signal;HPM_P1;HPM_P2
2022/08/29 03:00:23;;;;;;;9.80;3.23;;;15.50;99.90;;;;;;5941479;23;20855;-82
2022/08/29 03:02:48;;;;;;;12.65;3.70;;;15.50;99.90;;;;;;4893410;29;20424;-82
2022/08/29 03:05:16;;;;;;;9.50;2.63;;;15.50;99.90;;;;;;4919742;29;20086;-82
2022/08/29 03:07:42;;;;;;;7.47;2.90;;;15.50;99.90;;;;;;4919235;29;20047;-83
2022/08/29 03:10:08;;;;;;;9.32;3.05;;;15.50;99.90;;;;;;4936695;29;20050;-84
2022/08/29 03:12:35;;;;;;;6.90;2.90;;;15.50;99.90;;;;;;4919287;29;20186;-79
2022/08/29 03:15:05;;;;;;;8.23;2.70;;;15.40;99.90;;;;;;4919121;29;20063;-83
2022/08/29 03:17:31;;;;;;;10.82;3.67;;;15.40;99.90;;;;;;4936229;29;20039;-83
2022/08/29 03:19:57;;;;;;;10.40;2.80;;;15.50;99.90;;;;;;4919287;29;20486;-83
2022/08/29 03:22:24;;;;;;;8.05;3.17;;;15.50;99.90;;;;;;4919258;29;20391;-82
2022/08/29 03:24:50;;;;;;;7.10;3.13;;;15.50;99.90;;;;;;4936652;29;20036;-82
2022/08/29 03:27:17;;;;;;;9.10;3.45;;;15.50;99.90;;;;;;4903252;29;20039;-83
2022/08/29 03:29:42;;;;;;;6.60;3.10;;;15.50;99.90;;;;;;4936144;29;20039;-81
2022/08/29 03:32:08;;;;;;;11.05;3.15;;;15.50;99.90;;;;;;4919002;29;20456;-83
2022/08/29 03:34:33;;;;;;;6.70;3.03;;;15.50;99.90;;;;;;4922736;29;20455;-82
2022/08/29 03:36:59;;;;;;;8.57;3.17;;;15.50;99.90;;;;;;4922586;29;20130;-84
2022/08/29 03:39:25;;;;;;;11.48;3.13;;;15.50;99.90;;;;;;4939542;29;20047;-82
2022/08/29 03:41:51;;;;;;;5.93;2.90;;;15.50;99.90;;;;;;4939618;29;20071;-83
2022/08/29 03:44:17;;;;;;;8.60;3.00;;;15.50;99.90;;;;;;4906754;29;20111;-82
2022/08/29 03:46:43;;;;;;;5.85;3.30;;;15.50;99.90;;;;;;4939838;29;20043;-82
2022/08/29 03:49:09;;;;;;;9.23;2.85;;;15.50;99.90;;;;;;4939439;29;20046;-81
2022/08/29 03:51:37;;;;;;;8.55;3.40;;;15.50;99.90;;;;;;4939605;29;20410;-83
2022/08/29 03:54:04;;;;;;;7.22;2.60;;;15.40;99.90;;;;;;4922356;29;20051;-82
2022/08/29 03:56:30;;;;;;;9.15;2.78;;;15.40;99.90;;;;;;4922297;29;20044;-81
2022/08/29 03:58:57;;;;;;;10.50;3.53;;;15.40;99.90;;;;;;4922280;29;20043;-79
2022/08/29 04:01:27;;;;;;;7.35;3.47;;;15.40;99.90;;;;;;4906805;29;20057;-77
2022/08/29 04:04:00;;;;;;;11.88;3.30;;;15.30;99.90;;;;;;4922592;29;20484;-84
2022/08/29 04:06:27;;;;;;;11.48;3.17;;;15.30;99.90;;;;;;4939290;29;20035;-83
2022/08/29 04:08:53;;;;;;;8.30;3.92;;;15.30;99.90;;;;;;4920924;29;20126;-84
2022/08/29 04:11:22;;;;;;;9.63;3.40;;;15.30;99.90;;;;;;4921094;29;20488;-82
2022/08/29 04:13:49;;;;;;;11.80;3.33;;;15.30;99.90;;;;;;4922180;29;20102;-83
2022/08/29 04:16:18;;;;;;;8.38;3.50;;;15.20;99.90;;;;;;4922211;29;20043;-82
2022/08/29 04:18:44;;;;;;;10.82;3.58;;;15.20;99.90;;;;;;4939633;29;20047;-83
2022/08/29 04:21:11;;;;;;;11.00;3.15;;;15.20;99.90;;;;;;4922001;29;20047;-82
2022/08/29 04:23:37;;;;;;;8.93;3.42;;;15.20;99.90;;;;;;4922152;29;20391;-81
2022/08/29 04:26:04;;;;;;;14.68;3.45;;;15.20;99.90;;;;;;4922245;29;20048;-84
2022/08/29 04:28:30;;;;;;;12.70;3.25;;;15.20;99.90;;;;;;4939021;29;20055;-82
2022/08/29 04:30:56;;;;;;;12.00;3.70;;;15.20;99.90;;;;;;4922026;29;20387;-82
2022/08/29 04:33:24;;;;;;;10.02;3.42;;;15.20;99.90;;;;;;4906178;29;20051;-84
2022/08/29 04:35:51;;;;;;;7.72;3.08;;;15.20;99.90;;;;;;4906373;29;20102;-83
2022/08/29 04:38:17;;;;;;;10.18;3.38;;;15.20;99.90;;;;;;4938438;29;20092;-85
2022/08/29 04:40:43;;;;;;;7.18;3.40;;;15.20;99.90;;;;;;4938845;29;20099;-83
2022/08/29 04:43:09;;;;;;;9.23;3.15;;;15.20;99.90;;;;;;4921112;29;20051;-83
2022/08/29 04:45:36;;;;;;;8.05;3.33;;;15.20;99.90;;;;;;4921882;29;20348;-82
2022/08/29 04:48:03;;;;;;;11.10;3.50;;;15.20;99.90;;;;;;4938457;29;20048;-82
2022/08/29 04:50:29;;;;;;;11.80;3.08;;;15.20;99.90;;;;;;4921250;29;20189;-81
2022/08/29 04:52:55;;;;;;;9.55;3.97;;;15.20;99.90;;;;;;4905639;29;20131;-81
2022/08/29 04:55:22;;;;;;;13.55;4.57;;;15.20;99.90;;;;;;4921332;29;20172;-84
2022/08/29 04:57:50;;;;;;;7.75;3.72;;;15.20;99.90;;;;;;4938590;29;20083;-84
2022/08/29 05:00:19;;;;;;;8.55;3.70;;;15.20;99.90;;;;;;4921372;29;20503;-84
2022/08/29 05:02:45;;;;;;;10.02;3.90;;;15.30;99.90;;;;;;4921299;29;20051;-81
2022/08/29 05:05:13;;;;;;;12.07;3.30;;;15.30;99.90;;;;;;4921824;29;20383;-82
2022/08/29 05:07:40;;;;;;;8.57;3.40;;;15.20;99.90;;;;;;4921121;29;20534;-82
2022/08/29 05:10:14;;;;;;;11.25;3.80;;;15.30;99.90;;;;;;4921152;29;20130;-83
2022/08/29 05:12:40;;;;;;;11.57;4.23;;;15.30;99.90;;;;;;4921582;29;20047;-83
2022/08/29 05:15:07;;;;;;;14.57;3.95;;;15.30;99.90;;;;;;4921348;29;20517;-82
2022/08/29 05:17:33;;;;;;;9.38;4.28;;;15.30;99.90;;;;;;4906759;29;20048;-83
2022/08/29 05:19:59;;;;;;;8.13;2.95;;;15.30;99.90;;;;;;4902167;29;20055;-82
2022/08/29 05:22:25;;;;;;;14.38;4.22;;;15.30;99.90;;;;;;4902009;29;20044;-83
2022/08/29 05:24:52;;;;;;;9.77;3.40;;;15.30;99.90;;;;;;4886723;29;20072;-83
2022/08/29 05:27:20;;;;;;;10.88;3.58;;;15.30;99.90;;;;;;4919418;29;20377;-83
2022/08/29 05:29:50;;;;;;;8.68;2.92;;;15.40;99.90;;;;;;4901983;29;20126;-82
2022/08/29 05:32:17;;;;;;;6.75;3.45;;;15.30;99.90;;;;;;4918677;29;20040;-85
2022/08/29 05:34:44;;;;;;;10.20;3.40;;;15.30;99.90;;;;;;4901804;29;20044;-85
2022/08/29 05:37:13;;;;;;;10.70;3.63;;;15.30;99.90;;;;;;4918783;29;20044;-85
2022/08/29 05:39:40;;;;;;;10.75;3.35;;;15.40;99.90;;;;;;4901358;29;20044;-83
2022/08/29 05:42:07;;;;;;;10.18;3.40;;;15.40;99.90;;;;;;4901514;29;20055;-84
2022/08/29 05:44:34;;;;;;;8.98;3.17;;;15.40;99.90;;;;;;4901587;29;20063;-83
2022/08/29 05:47:02;;;;;;;11.32;3.30;;;15.50;99.90;;;;;;4901810;29;20370;-83
2022/08/29 05:49:27;;;;;;;20.08;3.92;;;15.50;99.90;;;;;;4885501;29;20040;-84
2022/08/29 05:51:55;;;;;;;9.70;3.67;;;15.50;99.90;;;;;;4918087;29;20102;-81
2022/08/29 05:54:22;;;;;;;10.90;3.50;;;15.50;99.90;;;;;;4901062;29;20043;-83
2022/08/29 05:56:47;;;;;;;7.50;3.03;;;15.50;99.90;;;;;;4885161;29;20488;-83
2022/08/29 05:59:15;;;;;;;11.30;3.40;;;15.50;99.90;;;;;;4900979;29;20044;-81
2022/08/29 06:01:41;;;;;;;11.40;3.63;;;15.60;99.90;;;;;;4900837;29;20044;-85
2022/08/29 06:04:07;;;;;;;11.80;3.78;;;15.50;99.90;;;;;;4918388;29;20035;-83
2022/08/29 06:06:33;;;;;;;10.60;3.97;;;15.60;99.90;;;;;;4918288;29;20036;-83
2022/08/29 06:08:59;;;;;;;8.90;3.33;;;15.60;99.90;;;;;;4901085;29;20108;-82
2022/08/29 06:11:30;;;;;;;11.93;4.03;;;15.60;99.90;;;;;;4900885;29;20107;-85
2022/08/29 06:13:56;;;;;;;9.82;3.15;;;15.60;99.90;;;;;;4900908;29;20128;-85
2022/08/29 06:16:24;;;;;;;12.70;3.85;;;15.70;99.90;;;;;;4900859;29;20083;-84
2022/08/29 06:18:50;;;;;;;12.75;3.67;;;15.70;99.90;;;;;;4900854;29;20044;-83
2022/08/29 06:21:16;;;;;;;15.10;4.00;;;15.70;99.90;;;;;;4917883;29;20028;-85
2022/08/29 06:23:42;;;;;;;9.50;3.10;;;15.80;99.90;;;;;;4917883;29;20075;-82
2022/08/29 06:26:09;;;;;;;10.18;3.60;;;15.80;99.90;;;;;;4885345;29;20048;-81
2022/08/29 06:28:37;;;;;;;13.93;3.60;;;15.80;99.90;;;;;;4885735;29;20051;-81
2022/08/29 06:31:11;;;;;;;9.00;3.13;;;15.90;99.90;;;;;;4901452;29;20044;-83
2022/08/29 06:33:37;;;;;;;9.43;3.53;;;15.90;99.90;;;;;;4920359;29;20135;-78
2022/08/29 06:36:05;;;;;;;11.88;3.72;;;15.90;99.90;;;;;;4909247;29;20128;-80
2022/08/29 06:38:32;;;;;;;8.35;2.90;;;15.90;99.90;;;;;;4909753;29;20079;-81
2022/08/29 06:41:05;;;;;;;9.15;3.50;;;16.00;99.90;;;;;;4901984;29;20047;-85
2022/08/29 06:43:31;;;;;;;13.23;3.60;;;16.00;99.90;;;;;;4918343;29;20048;-82
2022/08/29 06:45:57;;;;;;;8.35;3.60;;;16.00;99.90;;;;;;4901069;29;20062;-82
2022/08/29 06:48:23;;;;;;;9.07;3.25;;;16.00;99.90;;;;;;4901693;29;20451;-81
2022/08/29 06:50:48;;;;;;;10.25;3.58;;;16.10;99.90;;;;;;4900736;29;20083;-82
2022/08/29 06:53:14;;;;;;;8.68;3.38;;;16.10;99.90;;;;;;4900763;29;20143;-81
2022/08/29 06:55:39;;;;;;;9.10;2.92;;;16.10;99.90;;;;;;4900436;29;20044;-83
2022/08/29 06:58:05;;;;;;;7.57;2.95;;;16.10;99.90;;;;;;4917863;29;20044;-83
2022/08/29 07:00:31;;;;;;;8.98;3.00;;;16.20;99.90;;;;;;4900481;29;20040;-84
2022/08/29 07:02:57;;;;;;;7.03;3.10;;;16.20;99.90;;;;;;4900360;29;20492;-85
2022/08/29 07:05:23;;;;;;;7.00;3.00;;;16.20;99.90;;;;;;4900282;29;20396;-84
2022/08/29 07:07:50;;;;;;;7.10;3.00;;;16.20;99.90;;;;;;4899643;29;20122;-83
2022/08/29 07:10:17;;;;;;;10.10;3.17;;;16.30;99.90;;;;;;4900227;29;20048;-83
2022/08/29 07:12:42;;;;;;;10.23;3.08;;;16.30;99.90;;;;;;4917435;29;20132;-80
2022/08/29 07:15:08;;;;;;;9.90;3.08;;;16.40;99.90;;;;;;4900220;29;20477;-82
2022/08/29 07:17:34;;;;;;;7.13;2.63;;;16.50;99.90;;;;;;4900202;29;20052;-82
2022/08/29 07:20:00;;;;;;;8.73;3.10;;;16.60;99.90;;;;;;4900454;29;20115;-83
2022/08/29 07:22:25;;;;;;;12.10;3.75;;;16.70;99.90;;;;;;4884931;29;20230;-83
2022/08/29 07:24:52;;;;;;;8.52;3.10;;;16.80;99.90;;;;;;4900262;29;20484;-82
2022/08/29 07:27:18;;;;;;;10.15;3.15;;;16.90;99.90;;;;;;4899995;29;20123;-81
2022/08/29 07:29:44;;;;;;;8.23;2.70;;;16.90;99.90;;;;;;4884569;29;20067;-84
2022/08/29 07:32:09;;;;;;;9.18;2.72;;;17.10;99.90;;;;;;4900034;29;20515;-82
2022/08/29 07:34:35;;;;;;;11.02;2.70;;;17.20;99.90;;;;;;4884733;29;20076;-83
2022/08/29 07:37:03;;;;;;;6.88;2.63;;;17.30;99.90;;;;;;4932101;29;20103;-84
2022/08/29 07:39:29;;;;;;;8.52;3.00;;;17.40;99.90;;;;;;4898313;29;20048;-85
2022/08/29 07:41:55;;;;;;;9.07;2.75;;;17.40;99.90;;;;;;4916935;29;20107;-83
2022/08/29 07:44:21;;;;;;;10.23;2.60;;;17.50;99.90;;;;;;4901029;29;20044;-84
2022/08/29 07:46:47;;;;;;;8.52;2.67;;;17.60;99.90;;;;;;4917175;29;20403;-83
2022/08/29 07:49:13;;;;;;;12.60;2.20;;;17.60;99.90;;;;;;4916894;29;20118;-84
2022/08/29 07:51:39;;;;;;;6.63;2.15;;;17.60;99.90;;;;;;4899828;29;20048;-84
2022/08/29 07:54:05;;;;;;;12.52;2.80;;;17.70;99.90;;;;;;4900100;29;20058;-84
2022/08/29 07:56:33;;;;;;;9.52;2.42;;;17.70;99.90;;;;;;4900078;29;20123;-82
2022/08/29 07:58:59;;;;;;;7.57;2.20;;;17.80;99.90;;;;;;4884215;29;20044;-83
2022/08/29 08:01:26;;;;;;;16.75;3.08;;;17.90;99.90;;;;;;4899601;29;20051;-84
2022/08/29 08:03:53;;;;;;;6.88;2.05;;;18.00;99.90;;;;;;4899909;29;20404;-82
2022/08/29 08:06:21;;;;;;;6.50;2.50;;;18.10;99.90;;;;;;4900265;29;20044;-84
2022/08/29 08:08:47;;;;;;;10.40;2.40;;;18.20;99.90;;;;;;4917209;29;20040;-82
2022/08/29 08:11:13;;;;;;;10.77;2.70;;;18.30;99.90;;;;;;4916400;29;20171;-80
2022/08/29 08:13:39;;;;;;;6.85;2.35;;;18.30;99.90;;;;;;4916499;29;20123;-81
2022/08/29 08:16:10;;;;;;;7.57;2.50;;;18.40;99.90;;;;;;4900022;29;20047;-80
2022/08/29 08:18:38;;;;;;;8.55;2.38;;;18.40;99.90;;;;;;4900635;29;20047;-81
2022/08/29 08:21:04;;;;;;;7.43;2.53;;;18.50;99.90;;;;;;4920081;29;20040;-81
2022/08/29 08:23:30;;;;;;;7.25;2.28;;;18.50;99.90;;;;;;4887648;29;20568;-82
2022/08/29 08:25:56;;;;;;;8.88;2.25;;;18.50;99.90;;;;;;4920149;29;20122;-82
2022/08/29 08:28:22;;;;;;;7.50;1.80;;;18.50;99.90;;;;;;4903058;29;20136;-82
2022/08/29 08:30:48;;;;;;;7.40;1.80;;;18.50;99.90;;;;;;4903119;29;20051;-82
2022/08/29 08:33:14;;;;;;;6.28;2.25;;;18.50;99.90;;;;;;4920019;29;20055;-82
2022/08/29 08:35:40;;;;;;;6.55;1.98;;;18.60;99.90;;;;;;4902859;29;20051;-82
2022/08/29 08:38:07;;;;;;;7.13;2.38;;;18.60;99.90;;;;;;4902608;29;20044;-81
2022/08/29 08:40:42;;;;;;;5.18;2.00;;;18.60;99.90;;;;;;4919955;29;20095;-82
2022/08/29 08:43:11;;;;;;;5.05;2.03;;;18.70;99.90;;;;;;4919770;29;20440;-83
2022/08/29 08:45:41;;;;;;;8.50;2.08;;;18.70;99.90;;;;;;4919510;29;20095;-82
2022/08/29 08:48:26;;;;;;;7.50;2.10;;;18.70;99.90;;;;;;4919487;29;20051;-82
2022/08/29 08:50:58;;;;;;;6.50;1.77;;;18.80;99.90;;;;;;4903231;29;20432;-82
2022/08/29 08:53:39;;;;;;;5.40;1.60;;;18.80;99.90;;;;;;4887004;29;20095;-82
2022/08/29 08:56:29;;;;;;;7.03;1.73;;;18.90;99.90;;;;;;4919501;29;20104;-83
2022/08/29 08:59:04;;;;;;;7.88;1.60;;;18.90;99.90;;;;;;4919776;29;20056;-83
2022/08/29 09:01:39;;;;;;;5.05;1.40;;;19.00;99.90;;;;;;4919365;29;20040;-81
2022/08/29 09:04:34;;;;;;;5.28;1.60;;;19.00;99.90;;;;;;4920055;29;20111;-82
2022/08/29 09:07:03;;;;;;;9.18;2.42;;;19.10;99.90;;;;;;4902599;29;20564;-82
2022/08/29 09:09:29;;;;;;;5.50;1.90;;;19.20;99.90;;;;;;4902290;29;20058;-82
2022/08/29 09:12:09;;;;;;;6.57;1.95;;;19.30;99.90;;;;;;4886621;29;20048;-83
2022/08/29 09:15:07;;;;;;;6.18;2.00;;;19.40;99.90;;;;;;4919508;29;20116;-82
2022/08/29 09:17:42;;;;;;;5.95;1.77;;;19.50;99.90;;;;;;4871256;29;20052;-83
2022/08/29 09:20:12;;;;;;;8.73;2.42;;;19.60;99.90;;;;;;4919650;29;20040;-82
2022/08/29 09:22:41;;;;;;;6.45;2.50;;;19.60;99.90;;;;;;4919299;29;20044;-83
2022/08/29 09:25:09;;;;;;;7.32;2.00;;;19.60;99.90;;;;;;4901925;29;20052;-84
2022/08/29 09:27:36;;;;;;;9.27;2.00;;;19.60;99.90;;;;;;4919274;29;20076;-82
2022/08/29 09:30:14;;;;;;;8.52;1.70;;;19.60;99.90;;;;;;4901140;29;20044;-81
2022/08/29 09:32:55;;;;;;;6.47;1.77;;;19.50;99.90;;;;;;4919660;29;20048;-83
2022/08/29 09:35:26;;;;;;;13.45;2.35;;;19.50;99.90;;;;;;4918741;29;20036;-81
2022/08/29 09:38:17;;;;;;;6.55;1.90;;;19.50;99.90;;;;;;4918225;29;20420;-84
2022/08/29 09:40:59;;;;;;;5.38;1.95;;;19.60;99.90;;;;;;4893020;29;20048;-82
2022/08/29 09:43:29;;;;;;;7.57;1.92;;;19.70;99.90;;;;;;4883109;29;20048;-81
2022/08/29 09:46:09;;;;;;;8.07;2.15;;;19.70;99.90;;;;;;4882748;29;20059;-83
2022/08/29 09:48:37;;;;;;;7.15;1.85;;;19.70;99.90;;;;;;4898249;29;20051;-84
2022/08/29 09:51:23;;;;;;;6.20;2.47;;;19.70;99.90;;;;;;4885865;29;20567;-83
2022/08/29 09:53:51;;;;;;;7.78;2.42;;;19.70;99.90;;;;;;4918239;29;20040;-82
2022/08/29 09:56:24;;;;;;;7.03;2.40;;;19.70;99.90;;;;;;4901326;29;20048;-82
2022/08/29 09:58:59;;;;;;;6.60;2.72;;;19.80;99.90;;;;;;4918228;29;20048;-82
2022/08/29 10:01:26;;;;;;;6.13;2.05;;;19.80;99.90;;;;;;4918095;29;20044;-81
2022/08/29 10:04:01;;;;;;;7.43;2.90;;;19.80;99.90;;;;;;4901183;29;20075;-82
2022/08/29 10:06:31;;;;;;;7.97;2.30;;;19.80;99.90;;;;;;4901418;29;20052;-82
2022/08/29 10:09:04;;;;;;;9.00;2.17;;;19.80;99.90;;;;;;4932478;29;20100;-82
2022/08/29 10:11:52;;;;;;;9.52;2.50;;;19.80;99.90;;;;;;4932490;29;20048;-82
2022/08/29 10:15:04;;;;;;;5.47;1.83;;;19.80;99.90;;;;;;4918299;29;20044;-82
2022/08/29 10:20:51;;;;;;;7.55;1.80;;;19.90;99.90;;;;;;4901946;29;20392;-80
2022/08/29 10:23:36;;;;;;;7.28;2.35;;;19.90;99.90;;;;;;4917978;29;20048;-84
2022/08/29 10:26:08;;;;;;;7.57;2.37;;;20.00;99.90;;;;;;4918291;29;20164;-82
2022/08/29 10:28:48;;;;;;;6.60;2.08;;;20.10;99.90;;;;;;4901076;29;20122;-84
2022/08/29 10:31:25;;;;;;;7.95;2.00;;;20.10;99.90;;;;;;4901030;29;20200;-83
2022/08/29 10:34:10;;;;;;;5.55;2.08;;;20.10;99.90;;;;;;4918073;29;20175;-82
2022/08/29 10:36:42;;;;;;;5.22;1.88;;;20.20;99.90;;;;;;4901595;29;20075;-83
2022/08/29 10:39:25;;;;;;;8.02;2.40;;;20.20;99.90;;;;;;4900910;29;20044;-80
2022/08/29 10:42:14;;;;;;;5.60;1.90;;;20.20;99.90;;;;;;4884781;29;20044;-81
2022/08/29 10:44:46;;;;;;;7.60;2.53;;;20.30;99.90;;;;;;4917560;29;20540;-83
2022/08/29 10:47:32;;;;;;;8.80;2.60;;;20.30;99.90;;;;;;4900585;29;20511;-82
2022/08/29 10:50:28;;;;;;;6.35;2.20;;;20.30;99.90;;;;;;4901434;29;20040;-84
2022/08/29 10:53:13;;;;;;;10.85;2.67;;;20.40;99.90;;;;;;4917677;29;20036;-84
2022/08/29 10:55:54;;;;;;;7.53;2.05;;;20.40;99.90;;;;;;4901535;29;20036;-81
2022/08/29 10:59:02;;;;;;;6.88;2.38;;;20.40;99.90;;;;;;4884748;29;20505;-83
2022/08/29 11:01:32;;;;;;;11.95;2.53;;;20.40;99.90;;;;;;4900655;29;20084;-84
2022/08/29 11:04:17;;;;;;;8.30;2.20;;;20.50;99.90;;;;;;4895055;29;20050;-84
2022/08/29 11:07:15;;;;;;;6.38;2.13;;;20.50;99.90;;;;;;4919672;29;20395;-84
2022/08/29 11:10:25;;;;;;;7.40;2.47;;;20.50;99.90;;;;;;4919251;29;20099;-85
2022/08/29 11:13:25;;;;;;;8.82;2.08;;;20.60;99.90;;;;;;4859163;29;20056;-80
2022/08/29 11:16:11;;;;;;;5.50;2.00;;;20.60;99.90;;;;;;4859780;29;20532;-82
2022/08/29 11:18:57;;;;;;;12.02;2.40;;;20.70;99.90;;;;;;4927048;29;20077;-83
2022/08/29 11:21:48;;;;;;;10.57;2.40;;;20.80;99.90;;;;;;4918805;29;20126;-83
2022/08/29 11:24:16;;;;;;;9.23;2.72;;;20.90;99.90;;;;;;4936043;29;20044;-80
2022/08/29 11:26:57;;;;;;;9.68;2.22;;;21.00;99.90;;;;;;4918759;29;20050;-81
2022/08/29 11:29:40;;;;;;;8.25;2.28;;;20.90;99.90;;;;;;4918924;29;20526;-82
2022/08/29 11:32:08;;;;;;;7.85;2.20;;;20.90;99.90;;;;;;4918756;29;20050;-82
2022/08/29 11:34:40;;;;;;;7.50;2.15;;;21.00;99.90;;;;;;4936211;29;20098;-82
2022/08/29 11:37:33;;;;;;;8.85;2.28;;;21.10;99.90;;;;;;4919143;29;20483;-82
2022/08/29 11:40:13;;;;;;;8.40;2.03;;;21.10;99.90;;;;;;4918825;29;20514;-83
2022/08/29 11:42:41;;;;;;;15.90;2.83;;;21.20;99.90;;;;;;4918841;29;20054;-82
2022/08/29 11:45:13;;;;;;;8.00;2.55;;;21.20;99.90;;;;;;4918796;29;20164;-82
2022/08/29 11:47:45;;;;;;;7.20;2.15;;;21.30;99.90;;;;;;4918971;29;20069;-80
2022/08/29 11:50:14;;;;;;;5.20;2.03;;;21.40;99.90;;;;;;4935944;29;20086;-80
2022/08/29 11:52:52;;;;;;;9.90;2.15;;;21.60;99.90;;;;;;4935602;29;20036;-82
2022/08/29 11:55:45;;;;;;;7.30;1.98;;;21.80;99.90;;;;;;4921947;29;20492;-81
2022/08/29 11:58:13;;;;;;;7.18;2.72;;;22.00;99.90;;;;;;4938928;29;20052;-84
2022/08/29 12:00:44;;;;;;;9.50;2.40;;;22.30;99.90;;;;;;4938931;29;20091;-83
2022/08/29 12:03:31;;;;;;;8.70;2.65;;;22.60;99.90;;;;;;4922316;29;20187;-83
2022/08/29 12:06:21;;;;;;;8.82;2.13;;;22.70;99.90;;;;;;4939965;29;20036;-84
2022/08/29 12:08:56;;;;;;;8.25;2.35;;;22.70;99.90;;;;;;4906951;29;20058;-81
2022/08/29 12:11:41;;;;;;;9.80;3.22;;;22.80;99.90;;;;;;4939138;29;20140;-84
2022/08/29 12:14:07;;;;;;;10.48;3.85;;;22.70;99.90;;;;;;4921781;29;20052;-83
2022/08/29 12:16:49;;;;;;;11.27;3.17;;;22.60;99.90;;;;;;4922674;29;20043;-84
2022/08/29 12:19:44;;;;;;;10.35;3.47;;;22.40;99.90;;;;;;4921918;29;20052;-83
2022/08/29 12:22:10;;;;;;;11.23;3.00;;;22.30;99.90;;;;;;4922034;29;20100;-82
2022/08/29 12:24:40;;;;;;;11.27;2.70;;;22.20;99.90;;;;;;4938886;29;20093;-83
2022/08/29 12:27:47;;;;;;;10.45;2.90;;;22.30;99.90;;;;;;4921870;29;20067;-84
2022/08/29 12:30:13;;;;;;;;;;;22.70;99.90;;;;;;4901761;29;20510;-84
2022/08/29 12:32:59;;;;;;;12.35;3.78;;;22.80;99.90;;;;;;4938952;29;19948;-82
2022/08/29 12:35:56;;;;;;;8.85;3.10;;;22.80;99.90;;;;;;4921651;29;20055;-81
2022/08/29 12:38:57;;;;;;;11.50;3.35;;;22.70;99.90;;;;;;4937729;29;20100;-83
2022/08/29 12:41:33;;;;;;;7.30;3.00;;;22.50;99.90;;;;;;4904108;29;20048;-83
2022/08/29 12:44:02;;;;;;;10.98;3.92;;;22.50;99.90;;;;;;4920015;29;20040;-83
2022/08/29 12:46:34;;;;;;;12.23;3.28;;;22.50;99.90;;;;;;4937712;29;20051;-83
2022/08/29 12:49:17;;;;;;;8.70;3.00;;;22.40;99.90;;;;;;4937466;29;20058;-84
2022/08/29 12:51:49;;;;;;;10.18;3.42;;;22.40;99.90;;;;;;4937414;29;20043;-84
2022/08/29 12:54:34;;;;;;;7.30;3.10;;;22.20;99.90;;;;;;4906525;29;20054;-83
2022/08/29 12:57:01;;;;;;;15.18;3.35;;;22.10;99.90;;;;;;4938269;29;20501;-83
2022/08/29 12:59:27;;;;;;;9.73;3.40;;;22.00;99.90;;;;;;4921354;29;20040;-84
2022/08/29 13:01:55;;;;;;;9.55;3.00;;;21.90;99.90;;;;;;4938152;29;20044;-84
2022/08/29 13:04:23;;;;;;;10.77;3.50;;;21.80;99.90;;;;;;4905359;29;20051;-83
2022/08/29 13:07:06;;;;;;;11.93;4.47;;;21.80;99.90;;;;;;4921053;29;20174;-83
2022/08/29 13:09:37;;;;;;;11.60;3.70;;;21.70;99.90;;;;;;4921033;29;20047;-84
2022/08/29 13:12:20;;;;;;;12.20;3.80;;;21.60;99.90;;;;;;4938852;29;20508;-82
2022/08/29 13:15:01;;;;;;;10.95;3.00;;;21.50;99.90;;;;;;4926834;29;20049;-81
2022/08/29 13:17:36;;;;;;;11.82;3.47;;;21.40;99.90;;;;;;4928880;29;20555;-82
2022/08/29 13:20:39;;;;;;;9.65;3.35;;;21.40;99.90;;;;;;4923153;29;20187;-83
2022/08/29 13:23:10;;;;;;;9.15;3.40;;;21.50;99.90;;;;;;4921447;29;20063;-85
2022/08/29 13:25:57;;;;;;;7.97;3.33;;;21.50;99.90;;;;;;4905275;29;20039;-82
2022/08/29 13:28:45;;;;;;;11.18;3.20;;;21.50;99.90;;;;;;4921040;29;20055;-83
2022/08/29 13:31:10;;;;;;;10.65;2.92;;;21.40;99.90;;;;;;4920806;29;20051;-83
2022/08/29 13:34:05;;;;;;;12.13;3.20;;;21.40;99.90;;;;;;4937945;29;20040;-82
2022/08/29 13:36:49;;;;;;;8.43;2.80;;;21.50;99.90;;;;;;4938007;29;20047;-83
2022/08/29 13:39:23;;;;;;;9.98;3.20;;;21.40;99.90;;;;;;4937957;29;20062;-83
2022/08/29 13:42:01;;;;;;;10.60;3.63;;;21.50;99.90;;;;;;4920479;29;20048;-84
2022/08/29 13:44:45;;;;;;;11.10;3.10;;;21.50;99.90;;;;;;4920500;29;20048;-84
2022/08/29 13:47:26;;;;;;;9.48;3.22;;;21.50;99.90;;;;;;4920395;29;20039;-83
2022/08/29 13:49:58;;;;;;;11.45;2.95;;;21.50;99.90;;;;;;4937686;29;20079;-85
2022/08/29 13:52:24;;;;;;;12.95;3.67;;;21.60;99.90;;;;;;4937680;29;20180;-83
2022/08/29 13:54:50;;;;;;;13.52;3.25;;;21.50;99.90;;;;;;4920228;29;20484;-83
2022/08/29 13:57:25;;;;;;;7.82;2.75;;;21.50;99.90;;;;;;4920220;29;20091;-84
2022/08/29 13:59:51;;;;;;;11.98;3.42;;;21.50;99.90;;;;;;4919967;29;20050;-83
2022/08/29 14:02:17;;;;;;;12.90;3.35;;;21.40;99.90;;;;;;4937083;29;20050;-83
2022/08/29 14:04:47;;;;;;;7.30;2.75;;;21.40;99.90;;;;;;4937442;29;20046;-83
2022/08/29 14:07:20;;;;;;;8.50;2.90;;;21.40;99.90;;;;;;4937241;29;20044;-83
2022/08/29 14:09:46;;;;;;;9.02;3.05;;;21.40;99.90;;;;;;4937194;29;20134;-84
2022/08/29 14:12:13;;;;;;;8.23;3.10;;;21.40;99.90;;;;;;4919926;29;20447;-83
2022/08/29 14:14:39;;;;;;;8.40;2.95;;;21.50;99.90;;;;;;4919995;29;20044;-82
2022/08/29 14:17:05;;;;;;;10.13;3.22;;;21.50;99.90;;;;;;4903566;29;20086;-84
2022/08/29 14:19:31;;;;;;;10.13;3.40;;;21.60;99.90;;;;;;4919666;29;20071;-85
2022/08/29 14:22:00;;;;;;;14.27;3.90;;;21.60;99.90;;;;;;4919670;29;20061;-83
2022/08/29 14:24:29;;;;;;;10.95;3.97;;;21.70;99.90;;;;;;4919901;29;20051;-85
2022/08/29 14:26:56;;;;;;;9.48;3.58;;;21.80;99.90;;;;;;4919576;29;20059;-84
2022/08/29 14:29:22;;;;;;;9.75;3.05;;;21.90;99.90;;;;;;4919915;29;20055;-83
2022/08/29 14:31:49;;;;;;;8.23;3.10;;;22.00;99.90;;;;;;4919707;29;20501;-83
2022/08/29 14:34:15;;;;;;;9.77;2.90;;;22.10;99.90;;;;;;4936429;29;20044;-83
2022/08/29 14:36:41;;;;;;;13.15;3.00;;;22.10;99.90;;;;;;4937004;29;20051;-82
2022/08/29 14:39:06;;;;;;;10.48;3.15;;;22.10;99.90;;;;;;4936430;29;20054;-84
2022/08/29 14:41:57;;;;;;;8.00;3.00;;;22.00;99.90;;;;;;4919653;29;20119;-83
2022/08/29 14:44:23;;;;;;;10.52;3.13;;;21.90;99.90;;;;;;4919633;29;20433;-83
2022/08/29 14:46:50;;;;;;;9.65;2.67;;;21.90;99.90;;;;;;4919347;29;20043;-83
2022/08/29 14:49:16;;;;;;;10.68;2.85;;;21.90;99.90;;;;;;4937015;29;20051;-84
2022/08/29 14:51:43;;;;;;;6.32;2.70;;;21.90;99.90;;;;;;4936948;29;20042;-83
2022/08/29 14:54:09;;;;;;;6.50;2.70;;;22.00;99.90;;;;;;4936737;29;20082;-83
2022/08/29 14:56:35;;;;;;;8.13;2.78;;;22.00;99.90;;;;;;4919280;29;20047;-82
2022/08/29 14:59:01;;;;;;;8.57;2.83;;;22.00;99.90;;;;;;4919350;29;20126;-83
2022/08/29 15:01:28;;;;;;;5.70;2.60;;;22.00;99.90;;;;;;4919290;29;20134;-84
2022/08/29 15:03:53;;;;;;;8.88;3.00;;;22.00;99.90;;;;;;4903325;29;20476;-84
2022/08/29 15:06:20;;;;;;;15.73;3.13;;;22.00;99.90;;;;;;4936713;29;20124;-85
2022/08/29 15:08:46;;;;;;;8.27;2.47;;;22.00;99.90;;;;;;4903234;29;20051;-84
2022/08/29 15:11:12;;;;;;;10.90;2.80;;;22.10;99.90;;;;;;4919504;29;20039;-83
2022/08/29 15:13:39;;;;;;;11.25;2.38;;;22.10;99.90;;;;;;4919207;29;20039;-83
2022/08/29 15:16:05;;;;;;;7.40;2.53;;;22.10;99.90;;;;;;4919354;29;20051;-84
2022/08/29 15:18:31;;;;;;;9.23;2.47;;;22.10;99.90;;;;;;4936313;29;20043;-84
2022/08/29 15:20:57;;;;;;;11.88;2.67;;;22.10;99.90;;;;;;4918915;29;20051;-86
2022/08/29 15:23:24;;;;;;;9.40;2.30;;;22.00;99.90;;;;;;4936319;29;20044;-85
2022/08/29 15:25:51;;;;;;;4.93;2.30;;;22.10;99.90;;;;;;4918973;29;20044;-84
2022/08/29 15:28:16;;;;;;;9.23;2.60;;;22.10;99.90;;;;;;4936381;29;20496;-84
2022/08/29 15:30:42;;;;;;;8.10;2.22;;;22.10;99.90;;;;;;4923180;29;20050;-84
2022/08/29 15:33:08;;;;;;;10.20;3.25;;;22.10;99.90;;;;;;4940049;29;20046;-84
2022/08/29 15:35:33;;;;;;;8.95;2.20;;;22.10;99.90;;;;;;4939744;29;20035;-85
2022/08/29 15:37:59;;;;;;;8.57;2.35;;;22.20;99.90;;;;;;4940244;29;20040;-84
2022/08/29 15:40:26;;;;;;;8.27;2.75;;;22.20;99.90;;;;;;4939784;29;20039;-86
2022/08/29 15:42:52;;;;;;;7.15;2.17;;;22.20;99.90;;;;;;4940037;29;20093;-85
2022/08/29 15:45:17;;;;;;;4.60;1.92;;;22.40;99.90;;;;;;4923642;29;20075;-84
2022/08/29 15:47:43;;;;;;;8.90;2.40;;;22.50;99.90;;;;;;4939942;29;20039;-84
2022/08/29 15:50:09;;;;;;;7.28;1.90;;;22.40;99.90;;;;;;4939946;29;20044;-85
2022/08/29 15:52:36;;;;;;;9.80;2.55;;;22.30;99.90;;;;;;4922562;29;20504;-85
2022/08/29 15:55:02;;;;;;;10.82;2.40;;;22.20;99.90;;;;;;4906866;29;20054;-83
2022/08/29 15:57:28;;;;;;;8.63;2.60;;;22.10;99.90;;;;;;4940138;29;20523;-84
2022/08/29 15:59:53;;;;;;;8.35;2.00;;;21.90;99.90;;;;;;4922377;29;20047;-85
2022/08/29 16:02:19;;;;;;;7.70;2.17;;;21.80;99.90;;;;;;4922597;29;20043;-84
2022/08/29 16:04:46;;;;;;;10.05;2.90;;;21.70;99.90;;;;;;4906476;29;20047;-84
2022/08/29 16:07:16;;;;;;;7.93;2.40;;;21.60;99.90;;;;;;4939680;29;20171;-83